AT-0002 weather

Scalaria Airchallenge Water Landing Area
Lake Wolfgang, Upper Austria, Austria

Public forecast

Using degrees Celsius for public forecast. Weather courtesy of forecast.io.

Closest aviation weather report (METAR) to Scalaria Airchallenge Water Landing Area

Closest report is Salzburg Airport, 18.1 nm (33.5 km) WNW. Retrieved 2020/04/07 00:20 UTC (9 minutes ago):

LOWS 070020Z AUTO 16007KT 9999 NCD 08/M00 Q1027

Closest aviation forecast (TAF) to Scalaria Airchallenge Water Landing Area

Closest forecast is Salzburg Airport, 18.1 nm (33.5 km) WNW. Retrieved 2020-04-07 00:21 UTC (8 minutes ago):

TAF LOWS 062315Z 0700/0724 15008KT CAVOK TX21/0714Z TN06/0704Z BECMG 0710/0712 03008KT BECMG 0718/0720 15006KT